Time;durP1;ratioP1;P1;durP2;ratioP2;P2;SDS_P1;SDS_P2;PMS_P1;PMS_P2;Temp;Humidity;BMP_temperature;BMP_pressure;BME280_temperature;BME280_humidity;BME280_pressure;Samples;Min_cycle;Max_cycle;Signal;HPM_P1;HPM_P2
2022/12/03 00:00:44;;;;;;;11.63;8.20;;;;;;;0.43;100.00;99816.50;6246854;23;20208;-79
2022/12/03 00:03:11;;;;;;;12.03;8.50;;;;;;;0.42;100.00;99820.13;6246175;23;20215;-79
2022/12/03 00:05:38;;;;;;;10.97;8.20;;;;;;;0.39;100.00;99820.41;6220199;23;20777;-80
2022/12/03 00:08:13;;;;;;;9.77;7.87;;;;;;;0.47;100.00;99814.41;6246144;23;20215;-79
2022/12/03 00:10:40;;;;;;;11.93;8.30;;;;;;;0.45;100.00;99809.28;6246159;23;20275;-79
2022/12/03 00:13:07;;;;;;;11.13;8.60;;;;;;;0.39;100.00;99807.25;6219574;23;20282;-80
2022/12/03 00:15:33;;;;;;;11.33;8.07;;;;;;;0.36;100.00;99818.09;6246770;23;20200;-80
2022/12/03 00:18:00;;;;;;;12.70;8.73;;;;;;;0.44;100.00;99815.53;6249178;23;20209;-79
2022/12/03 00:20:26;;;;;;;11.13;8.30;;;;;;;0.40;100.00;99817.66;6221636;23;20201;-79
2022/12/03 00:22:53;;;;;;;11.53;8.53;;;;;;;0.42;100.00;99815.66;6248541;23;20204;-80
2022/12/03 00:25:20;;;;;;;11.40;8.87;;;;;;;0.35;100.00;99811.16;6248586;23;20673;-80
2022/12/03 00:27:46;;;;;;;12.97;9.00;;;;;;;0.34;100.00;99812.13;6248064;23;20239;-80
2022/12/03 00:30:13;;;;;;;13.13;9.20;;;;;;;0.36;100.00;99818.09;6221180;23;20287;-79
2022/12/03 00:32:40;;;;;;;13.23;9.33;;;;;;;0.40;100.00;99819.44;6248396;23;20227;-79
2022/12/03 00:35:07;;;;;;;13.00;9.57;;;;;;;0.32;100.00;99822.00;6248877;23;20251;-80
2022/12/03 00:37:34;;;;;;;12.97;9.30;;;;;;;0.34;100.00;99823.50;6222673;23;20227;-79
2022/12/03 00:40:02;;;;;;;11.87;9.13;;;;;;;0.34;100.00;99825.31;6222569;23;20232;-79
2022/12/03 00:42:29;;;;;;;12.83;9.13;;;;;;;0.37;100.00;99832.94;6219115;23;20504;-78
2022/12/03 00:44:55;;;;;;;12.67;9.57;;;;;;;0.35;100.00;99843.63;6194280;23;20211;-77
2022/12/03 00:47:22;;;;;;;14.70;9.93;;;;;;;0.28;100.00;99833.84;6246825;23;20729;-77
2022/12/03 00:49:49;;;;;;;13.67;8.83;;;;;;;0.29;100.00;99830.19;6246820;23;20280;-80
2022/12/03 00:52:15;;;;;;;13.73;9.10;;;;;;;0.28;100.00;99834.63;6246255;23;20211;-78
2022/12/03 00:54:42;;;;;;;12.70;8.97;;;;;;;0.34;100.00;99825.31;6246355;23;20288;-76
2022/12/03 00:57:08;;;;;;;12.87;9.37;;;;;;;0.28;100.00;99832.00;6245850;23;20201;-77
2022/12/03 00:59:35;;;;;;;12.47;9.00;;;;;;;0.21;100.00;99833.59;6245643;23;20287;-76
2022/12/03 01:02:01;;;;;;;12.33;8.87;;;;;;;0.24;100.00;99832.44;6245057;23;20546;-76
2022/12/03 01:04:28;;;;;;;12.73;9.00;;;;;;;0.23;100.00;99833.44;6245601;23;20284;-77
2022/12/03 01:06:55;;;;;;;11.50;8.60;;;;;;;0.20;100.00;99837.19;6245592;23;20211;-78
2022/12/03 01:09:22;;;;;;;11.50;8.50;;;;;;;0.21;100.00;99835.38;6245753;23;20231;-77
2022/12/03 01:11:48;;;;;;;12.83;8.23;;;;;;;0.29;100.00;99830.19;6246075;23;20211;-77
2022/12/03 01:14:18;;;;;;;11.10;8.57;;;;;;;0.29;100.00;99828.38;6245272;23;20703;-77
2022/12/03 01:16:45;;;;;;;12.07;8.13;;;;;;;0.28;100.00;99837.28;6246192;23;20208;-77
2022/12/03 01:19:14;;;;;;;10.13;7.80;;;;;;;0.29;100.00;99848.66;6219926;23;20236;-77
2022/12/03 01:21:43;;;;;;;10.33;7.70;;;;;;;0.32;100.00;99843.94;6245986;23;20584;-77
2022/12/03 01:24:10;;;;;;;9.97;7.33;;;;;;;0.25;100.00;99839.38;6218559;23;20291;-77
2022/12/03 01:26:37;;;;;;;9.10;6.93;;;;;;;0.28;100.00;99833.84;6246828;23;20287;-79
2022/12/03 01:29:04;;;;;;;9.40;7.43;;;;;;;0.34;100.00;99825.31;6225241;23;20225;-79
2022/12/03 01:34:16;;;;;;;9.47;7.43;;;;;;;0.27;100.00;99832.16;6250131;22;20531;-81
2022/12/03 01:36:43;;;;;;;10.23;7.77;;;;;;;0.24;100.00;99832.44;6226138;23;20280;-79
2022/12/03 01:39:10;;;;;;;11.13;7.70;;;;;;;0.30;100.00;99835.34;6225922;23;20204;-79
2022/12/03 01:41:37;;;;;;;10.37;7.63;;;;;;;0.27;100.00;99825.09;6225537;23;20609;-79
2022/12/03 01:44:21;;;;;;;10.90;7.93;;;;;;;0.23;100.00;99833.44;6225867;23;20201;-78
2022/12/03 01:46:49;;;;;;;9.53;7.67;;;;;;;0.28;100.00;99834.63;6225811;23;20205;-78
2022/12/03 01:49:19;;;;;;;10.90;8.23;;;;;;;0.29;100.00;99848.66;6225600;23;20533;-79
2022/12/03 01:51:47;;;;;;;9.87;7.43;;;;;;;0.31;100.00;99838.78;6250774;23;20225;-79
2022/12/03 01:54:19;;;;;;;9.90;7.57;;;;;;;0.39;100.00;99838.88;6223183;23;20215;-79
2022/12/03 01:56:46;;;;;;;10.63;7.80;;;;;;;0.40;100.00;99837.91;6223462;23;20201;-79
2022/12/03 01:59:15;;;;;;;10.17;7.60;;;;;;;0.30;100.00;99835.34;6224138;23;20200;-79
2022/12/03 02:01:42;;;;;;;10.67;8.00;;;;;;;0.33;100.00;99831.56;6224364;23;20212;-79
2022/12/03 02:04:12;;;;;;;10.50;7.67;;;;;;;0.35;100.00;99826.97;6250407;23;20279;-78
2022/12/03 02:06:39;;;;;;;11.60;7.83;;;;;;;0.38;100.00;99827.50;6247652;23;20220;-78
2022/12/03 02:09:09;;;;;;;11.40;7.80;;;;;;;0.52;100.00;99827.94;6247669;23;20284;-78
2022/12/03 02:11:42;;;;;;;11.43;8.40;;;;;;;0.41;100.00;99821.94;6226650;23;20204;-79
2022/12/03 02:14:13;;;;;;;12.00;9.07;;;;;;;0.44;100.00;99839.25;6222723;23;20217;-78
2022/12/03 02:16:40;;;;;;;12.47;9.17;;;;;;;0.62;100.00;99832.19;6223417;23;20208;-78
2022/12/03 02:19:16;;;;;;;11.63;8.43;;;;;;;0.51;100.00;99842.13;6222497;23;20205;-78
2022/12/03 02:21:54;;;;;;;11.50;8.23;;;;;;;0.53;100.00;99840.16;6247959;23;20675;-79
2022/12/03 02:24:21;;;;;;;9.87;7.67;;;;;;;0.60;100.00;99842.06;6248066;23;20204;-78
2022/12/03 02:26:48;;;;;;;11.43;8.33;;;;;;;0.66;100.00;99836.16;6245519;23;20227;-78
2022/12/03 02:29:15;;;;;;;9.53;7.67;;;;;;;0.79;100.00;99843.72;6219298;23;20212;-78
2022/12/03 02:31:42;;;;;;;11.47;8.37;;;;;;;0.74;100.00;99833.63;6217824;23;20207;-78
2022/12/03 02:34:10;;;;;;;10.90;7.70;;;;;;;0.79;100.00;99828.69;6217573;23;20208;-78
2022/12/03 02:36:37;;;;;;;10.57;7.90;;;;;;;0.91;100.00;99836.38;6245248;23;20280;-78
2022/12/03 02:39:04;;;;;;;9.70;7.57;;;;;;;0.88;100.00;99841.00;6245882;23;20229;-79
2022/12/03 02:44:16;;;;;;;10.83;7.33;;;;;;;0.88;100.00;99832.25;6244653;23;20287;-77
2022/12/03 02:46:42;;;;;;;8.30;6.77;;;;;;;0.85;100.00;99829.88;6244620;23;20201;-77
2022/12/03 02:49:09;;;;;;;10.17;7.63;;;;;;;0.83;100.00;99829.22;6244361;23;20201;-77
2022/12/03 02:51:36;;;;;;;10.20;7.13;;;;;;;0.80;100.00;99829.50;6218039;23;20300;-77
2022/12/03 02:54:03;;;;;;;9.63;7.10;;;;;;;0.86;100.00;99839.47;6216746;23;20523;-77
2022/12/03 02:56:30;;;;;;;9.63;7.60;;;;;;;0.84;100.00;99834.34;6244382;23;20287;-78
2022/12/03 02:59:01;;;;;;;10.07;8.00;;;;;;;0.85;100.00;99843.06;6244379;23;20584;-77
2022/12/03 03:01:27;;;;;;;10.90;7.97;;;;;;;0.89;100.00;99834.72;6218138;23;20232;-78
2022/12/03 03:03:54;;;;;;;10.03;7.53;;;;;;;0.89;100.00;99837.34;6220041;23;20286;-78
2022/12/03 03:06:21;;;;;;;10.30;7.90;;;;;;;0.87;100.00;99825.31;6246075;23;20583;-78
2022/12/03 03:08:48;;;;;;;10.33;7.70;;;;;;;0.92;100.00;99820.41;6220264;23;20666;-77
2022/12/03 03:11:15;;;;;;;11.63;8.30;;;;;;;0.91;100.00;99821.38;6220008;23;20278;-78
2022/12/03 03:13:41;;;;;;;9.93;7.70;;;;;;;0.97;100.00;99825.22;6219984;23;20212;-78
2022/12/03 03:16:08;;;;;;;10.53;7.77;;;;;;;1.06;100.00;99819.00;6219566;23;20787;-77
2022/12/03 03:18:35;;;;;;;11.50;7.70;;;;;;;1.04;100.00;99820.97;6220060;23;20212;-77
2022/12/03 03:21:03;;;;;;;12.13;8.23;;;;;;;1.08;100.00;99822.31;6246842;23;20207;-78
2022/12/03 03:23:30;;;;;;;10.67;8.43;;;;;;;1.05;100.00;99818.19;6220069;23;20209;-78
2022/12/03 03:26:06;;;;;;;10.87;8.00;;;;;;;1.06;100.00;99814.56;6220006;23;20545;-78
2022/12/03 03:28:44;;;;;;;11.57;8.10;;;;;;;1.00;100.00;99811.72;6245970;23;20207;-78
2022/12/03 03:31:13;;;;;;;11.03;7.90;;;;;;;1.09;100.00;99803.69;6247229;23;20227;-78
2022/12/03 03:33:40;;;;;;;10.37;8.30;;;;;;;1.10;100.00;99804.53;6200020;23;20209;-79
2022/12/03 03:36:08;;;;;;;12.67;8.87;;;;;;;1.03;100.00;99806.09;6224730;23;20662;-78
2022/12/03 03:38:35;;;;;;;10.10;7.67;;;;;;;1.05;100.00;99822.63;6220984;23;20231;-76
2022/12/03 03:41:05;;;;;;;11.73;7.83;;;;;;;1.11;100.00;99822.03;6245607;23;20209;-77
2022/12/03 03:43:33;;;;;;;11.60;8.43;;;;;;;1.11;100.00;99814.94;6245646;23;20284;-77
2022/12/03 03:46:02;;;;;;;12.20;8.90;;;;;;;1.10;100.00;99815.91;6245674;23;20287;-78
2022/12/03 03:48:29;;;;;;;11.47;8.23;;;;;;;1.17;100.00;99819.56;6218648;23;20204;-78
2022/12/03 03:50:56;;;;;;;9.90;7.67;;;;;;;1.18;100.00;99815.97;6219285;23;20283;-77
2022/12/03 03:53:23;;;;;;;11.20;8.23;;;;;;;1.16;100.00;99830.31;6245550;23;20275;-77
2022/12/03 03:55:50;;;;;;;11.93;8.37;;;;;;;1.07;100.00;99818.88;6245398;23;20205;-78
2022/12/03 03:58:16;;;;;;;11.93;8.47;;;;;;;1.02;100.00;99820.31;6245063;23;20209;-77
2022/12/03 04:00:44;;;;;;;13.07;9.17;;;;;;;1.13;100.00;99818.22;6245548;23;20687;-78
2022/12/03 04:03:11;;;;;;;13.70;9.43;;;;;;;1.14;100.00;99814.63;6245752;23;20224;-78
2022/12/03 04:05:38;;;;;;;10.70;8.10;;;;;;;1.07;100.00;99810.97;6219185;23;20215;-77
2022/12/03 04:08:05;;;;;;;10.80;7.97;;;;;;;1.22;100.00;99819.09;6245284;23;20665;-77
2022/12/03 04:13:22;;;;;;;13.50;9.90;;;;;;;1.15;100.00;99821.56;6227517;23;20208;-79
2022/12/03 04:15:48;;;;;;;12.87;8.77;;;;;;;1.16;100.00;99828.50;6261689;22;20189;-77
2022/12/03 04:23:50;;;;;;;12.83;9.10;;;;;;;1.21;100.00;99828.03;6262705;23;20184;-79
2022/12/03 04:29:02;;;;;;;12.23;9.07;;;;;;;1.12;100.00;99815.78;6259552;23;20200;-79
2022/12/03 04:37:01;;;;;;;14.60;9.40;;;;;;;1.02;100.00;99815.88;6241637;23;20208;-81
2022/12/03 04:39:32;;;;;;;11.77;8.00;;;;;;;1.02;100.00;99807.94;6214769;23;20258;-80
2022/12/03 04:42:01;;;;;;;14.10;8.73;;;;;;;0.98;100.00;99805.78;6236894;23;20701;-80
2022/12/03 04:44:32;;;;;;;11.67;8.57;;;;;;;0.87;100.00;99802.41;6239086;23;20205;-79
2022/12/03 04:47:01;;;;;;;12.20;8.20;;;;;;;0.93;100.00;99805.41;6239908;23;20254;-79
2022/12/03 04:49:30;;;;;;;12.40;8.57;;;;;;;0.98;100.00;99805.78;6227499;23;20262;-77
2022/12/03 04:51:56;;;;;;;10.20;7.90;;;;;;;0.99;100.00;99805.59;6245056;23;20288;-77
2022/12/03 04:54:24;;;;;;;12.57;8.10;;;;;;;1.04;100.00;99803.31;6252553;23;20215;-80
2022/12/03 04:56:51;;;;;;;12.03;7.93;;;;;;;1.05;100.00;99796.25;6236599;23;20205;-79
2022/12/03 04:59:18;;;;;;;12.37;9.00;;;;;;;1.11;100.00;99796.47;6257733;23;20220;-79
2022/12/03 05:01:44;;;;;;;12.87;8.80;;;;;;;1.01;100.00;99802.81;6251683;23;20540;-79
2022/12/03 05:04:12;;;;;;;12.80;8.33;;;;;;;1.09;100.00;99813.41;6226659;23;20208;-79
2022/12/03 05:06:39;;;;;;;13.23;8.50;;;;;;;1.12;100.00;99818.41;6226067;23;20227;-79
2022/12/03 05:09:06;;;;;;;11.60;7.93;;;;;;;1.14;100.00;99817.25;6224964;23;20235;-79
2022/12/03 05:11:33;;;;;;;11.83;8.57;;;;;;;1.06;100.00;99817.22;6225986;23;20224;-79
2022/12/03 05:13:59;;;;;;;12.97;8.60;;;;;;;1.07;100.00;99820.69;6254014;23;20209;-79
2022/12/03 05:16:27;;;;;;;11.80;8.13;;;;;;;1.11;100.00;99817.56;6225356;23;20204;-81
2022/12/03 05:18:54;;;;;;;12.27;9.00;;;;;;;1.20;100.00;99824.56;6253223;23;20200;-79
2022/12/03 05:21:20;;;;;;;12.67;9.27;;;;;;;1.15;100.00;99823.38;6255166;23;20223;-79
2022/12/03 05:23:47;;;;;;;11.93;9.07;;;;;;;1.35;100.00;99819.53;6229054;23;20264;-79
2022/12/03 05:26:16;;;;;;;11.07;7.83;;;;;;;1.27;100.00;99816.84;6254545;23;20201;-80
2022/12/03 05:28:44;;;;;;;13.27;8.93;;;;;;;1.39;100.00;99817.41;6256578;23;20201;-80
2022/12/03 05:31:10;;;;;;;14.90;10.03;;;;;;;1.26;100.00;99818.63;6230426;23;20258;-80
2022/12/03 05:33:37;;;;;;;14.40;9.67;;;;;;;1.35;100.00;99818.72;6231957;23;20213;-79
2022/12/03 05:36:09;;;;;;;14.77;10.60;;;;;;;1.48;100.00;99827.03;6211571;23;20208;-80
2022/12/03 05:38:36;;;;;;;14.60;10.20;;;;;;;1.41;100.00;99826.00;6237961;23;20208;-80
2022/12/03 05:42:52;;;;;;;15.67;9.77;;;;;;;1.42;100.00;99823.19;6213141;23;20231;-80
2022/12/03 05:43:50;;;;;;;17.33;11.90;;;;;;;1.40;100.00;99825.16;6244213;23;20207;-81
2022/12/03 05:46:17;;;;;;;16.33;10.97;;;;;;;1.44;100.00;99828.34;6237515;23;20209;-80
2022/12/03 05:48:44;;;;;;;15.07;10.10;;;;;;;1.49;100.00;99829.53;6238172;23;20283;-81
2022/12/03 05:51:11;;;;;;;15.83;10.60;;;;;;;1.39;100.00;99823.53;6236332;23;20207;-80
2022/12/03 05:53:38;;;;;;;15.80;10.47;;;;;;;1.25;100.00;99821.47;6236266;23;20262;-80
2022/12/03 05:56:07;;;;;;;14.20;10.00;;;;;;;1.31;100.00;99816.38;6232767;23;20236;-80
2022/12/03 05:58:34;;;;;;;16.50;10.27;;;;;;;1.25;100.00;99832.00;6258421;23;20661;-80
2022/12/03 06:01:01;;;;;;;16.07;10.57;;;;;;;1.22;100.00;99829.66;6206650;23;20204;-80
2022/12/03 06:03:28;;;;;;;19.00;11.93;;;;;;;1.21;100.00;99820.13;6208406;23;20215;-80
2022/12/03 06:05:55;;;;;;;20.73;14.10;;;;;;;1.17;100.00;99824.84;6233286;23;20207;-81
2022/12/03 06:08:21;;;;;;;22.53;14.00;;;;;;;1.28;100.00;99827.25;6207420;23;20215;-80
2022/12/03 06:10:48;;;;;;;19.03;12.50;;;;;;;1.37;100.00;99819.38;6259411;23;20204;-79
2022/12/03 06:13:15;;;;;;;14.47;9.80;;;;;;;1.35;100.00;99819.53;6258842;23;20205;-80
2022/12/03 06:15:42;;;;;;;13.60;9.27;;;;;;;1.36;100.00;99817.69;6229764;23;20204;-80
2022/12/03 06:18:10;;;;;;;13.50;9.27;;;;;;;1.25;100.00;99813.53;6230112;23;20210;-80
2022/12/03 06:20:36;;;;;;;14.47;9.73;;;;;;;1.33;100.00;99816.22;6230873;23;20212;-80
2022/12/03 06:23:04;;;;;;;12.40;8.70;;;;;;;1.30;100.00;99814.72;6231555;23;20220;-79
2022/12/03 06:25:31;;;;;;;13.93;9.53;;;;;;;1.22;100.00;99813.84;6258154;23;20224;-80
2022/12/03 06:27:58;;;;;;;10.90;8.20;;;;;;;1.39;100.00;99820.88;6231395;23;20204;-80
2022/12/03 06:30:24;;;;;;;12.10;8.23;;;;;;;1.40;100.00;99817.25;6230989;23;20235;-79
2022/12/03 06:32:51;;;;;;;12.87;8.30;;;;;;;1.35;100.00;99816.91;6205011;23;20282;-79
2022/12/03 06:35:18;;;;;;;14.37;9.50;;;;;;;1.51;100.00;99822.25;6205585;23;20259;-80
2022/12/03 06:37:47;;;;;;;14.93;10.73;;;;;;;1.48;100.00;99821.75;6232250;23;20212;-80
2022/12/03 06:40:15;;;;;;;15.57;11.73;;;;;;;1.42;100.00;99831.13;6259945;23;20209;-80
2022/12/03 06:42:42;;;;;;;11.33;8.40;;;;;;;1.50;100.00;99833.81;6234192;23;20227;-80
2022/12/03 06:45:10;;;;;;;13.80;8.60;;;;;;;1.47;100.00;99826.19;6234747;23;20252;-80
2022/12/03 06:47:37;;;;;;;13.47;9.37;;;;;;;1.51;100.00;99835.47;6185302;23;20208;-80
2022/12/03 06:50:05;;;;;;;13.27;9.10;;;;;;;1.59;100.00;99827.56;6233528;23;20204;-79
2022/12/03 06:52:32;;;;;;;14.77;10.33;;;;;;;1.81;100.00;99828.84;6209408;23;20637;-79
2022/12/03 06:54:59;;;;;;;17.77;11.30;;;;;;;1.74;100.00;99831.28;6234035;23;20208;-80
2022/12/03 06:57:26;;;;;;;14.80;10.77;;;;;;;1.74;100.00;99827.81;6233287;23;20213;-80
2022/12/03 06:59:53;;;;;;;17.20;11.83;;;;;;;1.79;100.00;99838.75;6232543;23;20208;-80
2022/12/03 07:02:20;;;;;;;25.30;15.20;;;;;;;1.84;100.00;99843.53;6259627;23;20204;-80
2022/12/03 07:04:47;;;;;;;22.07;13.70;;;;;;;1.90;100.00;99841.13;6238092;23;20224;-80
2022/12/03 07:07:14;;;;;;;21.63;13.37;;;;;;;2.00;100.00;99841.81;6239417;23;20204;-80
2022/12/03 07:09:41;;;;;;;19.03;11.87;;;;;;;2.00;100.00;99836.53;6240421;23;20205;-81
2022/12/03 07:12:08;;;;;;;22.00;13.07;;;;;;;1.94;100.00;99831.03;6213883;23;20305;-80
2022/12/03 07:14:36;;;;;;;18.33;12.23;;;;;;;2.12;100.00;99835.25;6214351;23;20584;-80
2022/12/03 07:17:03;;;;;;;18.40;12.00;;;;;;;2.09;100.00;99834.75;6239775;23;20208;-80
2022/12/03 07:19:31;;;;;;;22.33;13.90;;;;;;;2.11;100.00;99840.69;6216806;23;20192;-80
2022/12/03 07:22:00;;;;;;;19.97;12.47;;;;;;;2.14;100.00;99843.03;6219206;23;20205;-81
2022/12/03 07:24:32;;;;;;;21.00;12.80;;;;;;;2.10;100.00;99846.97;6219192;23;20205;-81
2022/12/03 07:27:03;;;;;;;19.83;12.70;;;;;;;2.10;100.00;99841.69;6247416;23;20188;-81
2022/12/03 07:29:32;;;;;;;21.17;13.20;;;;;;;2.14;100.00;99846.50;6222662;23;20213;-81
2022/12/03 07:32:07;;;;;;;21.37;14.40;;;;;;;2.18;100.00;99850.47;6221690;23;20272;-81
2022/12/03 07:34:35;;;;;;;21.03;13.13;;;;;;;2.11;100.00;99845.97;6222834;23;20227;-81
2022/12/03 07:37:04;;;;;;;19.73;12.27;;;;;;;2.21;100.00;99850.13;6248610;22;20180;-81
2022/12/03 07:39:42;;;;;;;24.00;15.07;;;;;;;2.25;100.00;99857.72;6225249;23;20155;-81
2022/12/03 07:42:28;;;;;;;23.60;14.47;;;;;;;2.28;100.00;99854.78;6228682;22;20188;-81
2022/12/03 08:49:33;;;;;;;20.50;13.40;;;;;;;3.47;100.00;99867.41;6234074;23;20247;-81
2022/12/03 08:52:00;;;;;;;21.37;13.83;;;;;;;3.60;100.00;99875.66;6207662;23;20207;-81
2022/12/03 08:54:27;;;;;;;22.50;14.93;;;;;;;3.61;100.00;99864.06;6175853;23;20205;-80
2022/12/03 08:56:54;;;;;;;21.90;14.33;;;;;;;3.70;100.00;99856.94;6200721;23;20245;-80
2022/12/03 08:59:28;;;;;;;23.93;15.43;;;;;;;3.73;100.00;99853.97;6200612;23;20284;-80
2022/12/03 09:01:55;;;;;;;27.47;15.70;;;;;;;3.73;100.00;99867.22;6201493;23;20211;-80
2022/12/03 09:04:36;;;;;;;23.63;15.57;;;;;;;3.74;100.00;99866.19;6177327;22;20201;-80
2022/12/03 09:07:03;;;;;;;29.70;18.57;;;;;;;3.76;100.00;99862.38;6178667;23;20205;-80
2022/12/03 09:09:30;;;;;;;35.20;21.27;;;;;;;3.81;100.00;99865.34;6179033;23;20269;-81
2022/12/03 09:11:58;;;;;;;22.53;14.17;;;;;;;3.74;100.00;99867.00;6201957;23;20229;-80
2022/12/03 09:14:25;;;;;;;25.33;16.53;;;;;;;3.88;100.00;99858.34;6199954;22;20205;-80
2022/12/03 09:16:55;;;;;;;24.63;16.17;;;;;;;4.05;100.00;99864.44;6199281;23;20280;-81
2022/12/03 09:19:26;;;;;;;20.57;13.70;;;;;;;3.99;100.00;99863.28;6178574;23;20208;-80
2022/12/03 09:21:53;;;;;;;22.00;14.83;;;;;;;4.01;100.00;99857.84;6233900;22;20205;-80
2022/12/03 09:24:24;;;;;;;23.43;15.97;;;;;;;4.09;100.00;99859.63;6201419;22;20227;-80
2022/12/03 09:26:51;;;;;;;25.27;16.80;;;;;;;4.15;100.00;99856.28;6225549;22;20212;-80
2022/12/03 09:29:17;;;;;;;25.50;16.73;;;;;;;4.19;100.00;99863.72;6199854;23;20201;-80
2022/12/03 09:31:44;;;;;;;20.43;14.00;;;;;;;4.27;100.00;99865.50;6174808;23;20205;-80
2022/12/03 09:34:11;;;;;;;19.30;13.97;;;;;;;4.24;100.00;99856.06;6220813;23;20213;-79
2022/12/03 09:36:38;;;;;;;20.43;14.47;;;;;;;4.37;100.00;99866.94;6224298;23;20267;-80
2022/12/03 09:39:05;;;;;;;18.20;13.20;;;;;;;4.40;100.00;99857.78;6226146;23;20206;-81
2022/12/03 09:41:32;;;;;;;19.73;13.70;;;;;;;4.47;100.00;99855.28;6227334;23;20209;-80
2022/12/03 09:44:00;;;;;;;20.23;14.20;;;;;;;4.64;100.00;99864.78;6228969;23;20212;-81
2022/12/03 09:46:30;;;;;;;18.70;12.87;;;;;;;4.62;100.00;99854.34;6226224;23;20205;-81
2022/12/03 09:48:57;;;;;;;20.90;14.00;;;;;;;4.64;100.00;99848.84;6201352;23;20200;-81
2022/12/03 09:51:30;;;;;;;21.03;14.63;;;;;;;4.64;100.00;99844.38;6195433;23;20238;-81
2022/12/03 09:54:00;;;;;;;20.00;13.97;;;;;;;4.59;100.00;99851.22;6196054;23;20257;-80
2022/12/03 09:56:27;;;;;;;21.47;13.87;;;;;;;4.64;100.00;99843.56;6168185;23;20209;-80
2022/12/03 09:58:54;;;;;;;22.13;15.07;;;;;;;4.69;100.00;99849.16;6168349;23;20209;-80
2022/12/03 10:01:21;;;;;;;22.13;15.83;;;;;;;4.57;100.00;99848.75;6193918;23;20214;-80
2022/12/03 10:03:52;;;;;;;21.63;14.60;;;;;;;4.58;100.00;99839.78;6196127;23;20210;-80
2022/12/03 10:06:21;;;;;;;20.93;14.40;;;;;;;4.49;100.00;99840.00;6196576;23;20201;-80
2022/12/03 10:08:51;;;;;;;23.17;15.40;;;;;;;4.45;100.00;99836.88;6148681;23;20206;-81
2022/12/03 10:11:19;;;;;;;20.53;14.33;;;;;;;4.34;100.00;99835.44;6196392;23;20210;-81
2022/12/03 10:13:46;;;;;;;19.90;14.47;;;;;;;4.27;100.00;99829.19;6171067;23;20220;-80
2022/12/03 10:16:15;;;;;;;21.40;15.53;;;;;;;4.37;100.00;99829.81;6169595;23;20206;-80
2022/12/03 10:18:54;;;;;;;20.33;14.53;;;;;;;4.38;100.00;99827.97;6196452;23;20213;-81
2022/12/03 10:21:38;;;;;;;24.50;15.77;;;;;;;4.36;100.00;99825.50;6197541;23;20208;-79
2022/12/03 10:24:24;;;;;;;23.30;15.67;;;;;;;4.37;100.00;99824.50;6190252;23;20213;-79
2022/12/03 10:26:54;;;;;;;22.03;15.50;;;;;;;4.51;100.00;99825.56;6191242;23;20209;-80
2022/12/03 10:29:23;;;;;;;19.10;13.47;;;;;;;4.39;100.00;99829.59;6189690;23;20250;-80
2022/12/03 10:32:08;;;;;;;21.63;14.30;;;;;;;4.52;100.00;99821.09;6166798;23;20205;-80
2022/12/03 10:34:37;;;;;;;21.17;14.83;;;;;;;4.63;100.00;99810.88;6189821;23;20564;-80
2022/12/03 10:37:10;;;;;;;20.13;14.23;;;;;;;4.54;100.00;99797.84;6191576;23;20657;-80
2022/12/03 10:39:55;;;;;;;21.63;14.80;;;;;;;4.79;100.00;99797.50;6191098;23;20253;-81
2022/12/03 10:42:23;;;;;;;19.17;13.77;;;;;;;4.81;100.00;99798.13;6195102;23;20217;-80
2022/12/03 10:45:19;;;;;;;21.60;14.77;;;;;;;4.84;100.00;99799.63;6195893;23;20627;-81
2022/12/03 10:48:18;;;;;;;20.33;13.67;;;;;;;4.85;100.00;99795.97;6193638;23;20591;-81
2022/12/03 10:50:50;;;;;;;21.77;13.97;;;;;;;4.96;100.00;99794.69;6192957;23;20240;-80
2022/12/03 10:53:18;;;;;;;19.70;13.50;;;;;;;4.87;100.00;99802.72;6167722;23;20232;-80
2022/12/03 10:55:46;;;;;;;22.20;15.37;;;;;;;4.80;100.00;99799.16;6191912;23;20207;-80
2022/12/03 10:58:21;;;;;;;21.43;14.70;;;;;;;5.02;100.00;99794.81;6191827;23;20233;-80
2022/12/03 11:00:49;;;;;;;19.60;14.50;;;;;;;5.11;100.00;99790.25;6193857;23;20197;-80
2022/12/03 11:03:26;;;;;;;18.93;13.93;;;;;;;5.21;100.00;99791.63;6196513;23;20214;-80
2022/12/03 11:05:55;;;;;;;18.97;12.97;;;;;;;5.31;100.00;99786.06;6171909;23;20268;-80
2022/12/03 11:08:26;;;;;;;17.77;12.97;;;;;;;5.45;100.00;99781.75;6196247;23;20230;-81
2022/12/03 11:10:56;;;;;;;19.03;13.00;;;;;;;5.59;100.00;99788.91;6174711;23;20206;-80
2022/12/03 11:13:32;;;;;;;17.23;12.83;;;;;;;5.42;100.00;99776.78;6172317;23;20202;-80
2022/12/03 11:16:01;;;;;;;17.80;12.53;;;;;;;5.52;100.00;99778.19;6195757;23;20210;-80
2022/12/03 11:18:37;;;;;;;17.20;13.27;;;;;;;5.49;100.00;99773.25;6219509;23;20265;-80
2022/12/03 11:21:09;;;;;;;18.73;13.37;;;;;;;5.38;100.00;99778.19;6197881;23;20202;-80
2022/12/03 11:23:45;;;;;;;21.70;15.70;;;;;;;5.42;100.00;99779.44;6174126;23;20262;-80
2022/12/03 11:26:28;;;;;;;21.77;15.10;;;;;;;5.31;100.00;99773.63;6203391;23;20213;-80
2022/12/03 11:28:55;;;;;;;19.57;13.67;;;;;;;5.22;100.00;99777.34;6200733;23;20225;-81
2022/12/03 11:31:40;;;;;;;16.43;13.23;;;;;;;5.21;100.00;99790.81;6197493;23;20220;-80
2022/12/03 11:34:21;;;;;;;19.13;13.43;;;;;;;5.11;100.00;99784.94;6178569;23;20214;-81
2022/12/03 11:37:12;;;;;;;18.37;13.07;;;;;;;5.03;100.00;99782.34;6209056;23;20202;-82
2022/12/03 11:40:13;;;;;;;19.00;14.03;;;;;;;4.91;100.00;99775.81;6208866;23;20221;-82
2022/12/03 11:43:09;;;;;;;19.23;14.27;;;;;;;4.88;100.00;99774.34;6232572;23;20198;-82
2022/12/03 11:45:39;;;;;;;22.80;15.13;;;;;;;4.79;100.00;99765.66;6201201;23;20233;-81
2022/12/03 11:48:11;;;;;;;20.70;14.83;;;;;;;4.75;100.00;99774.16;6173396;23;20264;-80
2022/12/03 11:50:56;;;;;;;20.53;15.90;;;;;;;4.68;100.00;99759.91;6244402;22;20208;-82
2022/12/03 11:53:25;;;;;;;20.13;15.30;;;;;;;4.59;100.00;99769.78;6214459;23;20209;-81
2022/12/03 11:56:05;;;;;;;18.97;14.40;;;;;;;4.54;100.00;99768.66;6236125;22;20303;-81
2022/12/03 11:58:32;;;;;;;36.43;22.80;;;;;;;4.57;100.00;99766.50;6266206;22;20204;-82
2022/12/03 12:01:02;;;;;;;20.10;14.97;;;;;;;4.46;100.00;99774.03;6263524;22;20196;-82
2022/12/03 12:03:36;;;;;;;19.30;14.40;;;;;;;4.56;100.00;99762.19;6269176;22;20212;-83
2022/12/03 12:06:15;;;;;;;18.63;13.47;;;;;;;4.60;100.00;99766.13;6239561;22;20208;-81
2022/12/03 12:08:48;;;;;;;20.97;15.10;;;;;;;4.57;100.00;99760.34;6261475;22;20208;-81
2022/12/03 12:11:42;;;;;;;21.53;15.83;;;;;;;4.57;100.00;99765.66;6261676;22;20248;-82
2022/12/03 12:14:11;;;;;;;21.97;15.73;;;;;;;4.34;100.00;99769.13;6205766;22;20200;-80
2022/12/03 12:16:51;;;;;;;22.90;15.97;;;;;;;4.46;100.00;99768.72;6229476;22;20205;-81
2022/12/03 12:19:34;;;;;;;21.17;14.87;;;;;;;4.47;100.00;99765.06;6232824;23;20185;-81
2022/12/03 12:22:23;;;;;;;22.77;16.63;;;;;;;4.46;100.00;99774.03;6234468;22;20224;-81
2022/12/03 12:24:52;;;;;;;21.87;15.43;;;;;;;4.40;100.00;99771.06;6236617;22;20208;-81
2022/12/03 12:27:54;;;;;;;20.23;15.27;;;;;;;4.37;100.00;99768.78;6140283;23;20578;-82
2022/12/03 12:30:22;;;;;;;19.17;15.13;;;;;;;4.41;100.00;99767.44;6104364;23;20207;-81
2022/12/03 12:32:51;;;;;;;22.70;15.50;;;;;;;4.38;100.00;99761.66;6203066;22;20204;-82
2022/12/03 12:35:27;;;;;;;24.17;17.43;;;;;;;4.50;100.00;99754.94;6244450;22;20224;-82
2022/12/03 12:38:10;;;;;;;23.63;16.23;;;;;;;4.62;100.00;99756.16;6240353;22;20256;-82
2022/12/03 12:40:39;;;;;;;18.60;13.97;;;;;;;4.57;100.00;99747.09;6240710;22;20212;-81
2022/12/03 12:43:13;;;;;;;21.27;15.50;;;;;;;4.59;100.00;99759.16;6266664;22;20204;-82
2022/12/03 12:45:50;;;;;;;23.03;16.77;;;;;;;4.62;100.00;99753.50;6219200;23;20205;-82
2022/12/03 12:48:26;;;;;;;27.03;18.37;;;;;;;4.71;100.00;99748.97;6267568;22;20227;-81
2022/12/03 12:51:08;;;;;;;26.90;19.70;;;;;;;4.79;100.00;99747.06;6237286;22;20284;-81
2022/12/03 12:53:36;;;;;;;25.23;16.73;;;;;;;4.77;100.00;99748.22;6212188;23;20241;-81
2022/12/03 12:56:13;;;;;;;26.37;17.97;;;;;;;4.74;100.00;99749.44;6258733;22;20269;-81
2022/12/03 12:58:40;;;;;;;23.90;17.10;;;;;;;4.64;100.00;99742.72;6208904;23;20208;-81
2022/12/03 13:01:35;;;;;;;25.77;17.10;;;;;;;4.70;100.00;99736.69;6208756;23;20200;-82